Glencoe, Arkansas
Current Conditions -  °F | °C
As of 9:55 PM on Sunday 23 Nov 2014 (Local Time) from KBVX Reporting Station
Broken Clouds Broken Clouds  
Wind Chill: 63°   Ceiling: 2200
Heat Index: 63°   Visibility: 10mi
Dew Point: 57°   Wind: 12mph
Humidity: 82%   Direction: 200°SSW
Pressure: 29.34"   Gusts: 20mph
Location:  36.29°N, 91.75°W
Report Text: KBVX 240355Z AUTO 20010G17KT 10SM FEW014 BKN022 17/14 A2934 RMK AO1
Loading
Personal Weather Stations






























Interactive Weather Map New forecast layout! Learn more

10-Day Weather Forecast

Advertisements
Track Severe Weather on mobile